createdAt,value
2019-03-11T00:00:54.390Z,4.50
2019-03-11T00:03:21.854Z,4.50
2019-03-11T00:05:49.448Z,4.50
2019-03-11T00:08:17.108Z,4.60
2019-03-11T00:10:44.673Z,4.70
2019-03-11T00:13:12.127Z,4.70
2019-03-11T00:15:39.646Z,4.80
2019-03-11T00:18:07.565Z,4.90
2019-03-11T00:20:35.119Z,4.90
2019-03-11T00:23:02.669Z,5.00
2019-03-11T00:25:30.255Z,5.00
2019-03-11T00:27:57.714Z,5.20
2019-03-11T00:30:25.255Z,5.30
2019-03-11T00:32:52.872Z,5.30
2019-03-11T00:35:20.403Z,5.30
2019-03-11T00:37:47.935Z,5.40
2019-03-11T00:40:15.807Z,5.40
2019-03-11T00:42:43.304Z,5.40
2019-03-11T00:45:11.154Z,5.40
2019-03-11T00:47:38.624Z,5.30
2019-03-11T00:50:06.934Z,5.20
2019-03-11T00:52:34.678Z,5.20
2019-03-11T00:55:02.636Z,5.20
2019-03-11T00:57:30.142Z,5.20
2019-03-11T00:59:57.688Z,5.20
2019-03-11T01:02:25.198Z,5.10
2019-03-11T01:04:52.711Z,5.10
2019-03-11T01:07:20.298Z,5.10
2019-03-11T01:09:47.854Z,5.10
2019-03-11T01:12:15.464Z,5.00
2019-03-11T01:14:42.967Z,4.90
2019-03-11T01:17:10.485Z,4.90
2019-03-11T01:19:38.082Z,4.80
2019-03-11T01:22:05.611Z,4.70
2019-03-11T01:24:33.267Z,4.70
2019-03-11T01:27:00.843Z,4.60
2019-03-11T01:29:28.619Z,4.50
2019-03-11T01:31:56.242Z,4.50
2019-03-11T01:34:23.853Z,4.40
2019-03-11T01:36:51.477Z,4.40
2019-03-11T01:39:19.138Z,4.40
2019-03-11T01:41:46.756Z,4.40
2019-03-11T01:44:14.306Z,4.40
2019-03-11T01:46:42.832Z,4.40
2019-03-11T01:49:10.373Z,4.30
2019-03-11T01:51:38.056Z,4.30
2019-03-11T01:54:05.714Z,4.40
2019-03-11T01:56:33.678Z,4.30
2019-03-11T01:59:01.609Z,4.30
2019-03-11T02:01:29.102Z,4.30
2019-03-11T02:03:56.603Z,4.30
2019-03-11T02:06:24.225Z,4.40
2019-03-11T02:08:51.811Z,4.40
2019-03-11T02:11:19.375Z,4.30
2019-03-11T02:13:47.906Z,4.20
2019-03-11T02:16:15.441Z,4.20
2019-03-11T02:18:42.969Z,4.10
2019-03-11T02:21:10.534Z,4.10
2019-03-11T02:23:38.133Z,4.00
2019-03-11T02:26:05.695Z,4.00
2019-03-11T02:28:33.158Z,4.10
2019-03-11T02:31:00.717Z,4.10
2019-03-11T02:33:28.385Z,4.00
2019-03-11T02:35:57.901Z,3.90
2019-03-11T02:38:25.496Z,3.90
2019-03-11T02:40:53.083Z,3.90
2019-03-11T02:43:20.654Z,4.00
2019-03-11T02:45:51.993Z,4.00
2019-03-11T02:48:19.691Z,4.00
2019-03-11T02:50:47.330Z,3.90
2019-03-11T02:53:14.925Z,3.90
2019-03-11T02:55:42.576Z,3.80
2019-03-11T02:58:10.499Z,3.90
2019-03-11T03:00:38.140Z,3.90
2019-03-11T03:03:40.415Z,3.80
2019-03-11T03:06:11.516Z,3.80
2019-03-11T03:08:39.008Z,3.70
2019-03-11T03:11:07.030Z,3.70
2019-03-11T03:13:34.643Z,3.70
2019-03-11T03:16:02.354Z,3.70
2019-03-11T03:18:29.961Z,3.70
2019-03-11T03:20:57.582Z,3.70
2019-03-11T03:23:25.164Z,3.70
2019-03-11T03:25:52.681Z,3.70
2019-03-11T03:28:20.242Z,3.60
2019-03-11T03:30:47.876Z,3.70
2019-03-11T03:33:15.397Z,3.70
2019-03-11T03:35:43.017Z,3.70
2019-03-11T03:38:10.566Z,3.80
2019-03-11T03:40:38.302Z,3.80
2019-03-11T03:43:06.490Z,3.80
2019-03-11T03:45:39.025Z,3.70
2019-03-11T03:48:06.617Z,3.70
2019-03-11T03:50:36.138Z,3.60
2019-03-11T03:53:03.609Z,3.60
2019-03-11T03:55:31.085Z,3.60
2019-03-11T03:57:58.721Z,3.70
2019-03-11T04:00:26.393Z,3.80
2019-03-11T04:02:54.038Z,3.90
2019-03-11T04:05:21.624Z,4.00
2019-03-11T04:07:49.116Z,3.80
2019-03-11T04:10:16.956Z,3.70
2019-03-11T04:12:44.618Z,3.70
2019-03-11T04:15:12.340Z,3.60
2019-03-11T04:17:39.864Z,3.60
2019-03-11T04:20:09.668Z,3.70
2019-03-11T04:22:37.771Z,3.70
2019-03-11T04:25:06.037Z,3.80
2019-03-11T04:27:33.757Z,3.70
2019-03-11T04:30:01.878Z,3.70
2019-03-11T04:32:29.688Z,3.70
2019-03-11T04:34:57.232Z,3.60
2019-03-11T04:37:24.825Z,3.60
2019-03-11T04:39:52.416Z,3.70
2019-03-11T04:42:20.017Z,3.70
2019-03-11T04:44:47.590Z,3.80
2019-03-11T04:47:15.553Z,3.80
2019-03-11T04:49:47.198Z,3.70
2019-03-11T04:52:16.744Z,3.60
2019-03-11T05:01:51.566Z,3.60
2019-03-11T05:04:19.594Z,3.50
2019-03-11T05:06:57.493Z,3.40
2019-03-11T05:09:48.977Z,3.50
2019-03-11T05:12:16.817Z,3.50
2019-03-11T05:14:44.610Z,3.50
2019-03-11T05:17:12.225Z,3.40
2019-03-11T05:19:40.360Z,3.40
2019-03-11T05:22:08.039Z,3.50
2019-03-11T05:24:35.698Z,3.50
2019-03-11T05:27:03.754Z,3.60
2019-03-11T05:29:31.475Z,3.60
2019-03-11T05:31:59.140Z,3.60
2019-03-11T05:34:27.441Z,3.70
2019-03-11T05:36:55.135Z,3.80
2019-03-11T05:39:23.064Z,3.80
2019-03-11T05:41:50.802Z,3.80
2019-03-11T05:44:18.755Z,3.80
2019-03-11T05:46:48.259Z,3.80
2019-03-11T05:49:15.893Z,3.80
2019-03-11T05:51:43.655Z,3.70
2019-03-11T05:54:11.132Z,3.60
2019-03-11T05:56:38.497Z,3.50
2019-03-11T05:59:06.059Z,3.40
2019-03-11T06:01:33.538Z,3.20
2019-03-11T06:04:01.000Z,3.10
2019-03-11T06:06:28.498Z,3.00
2019-03-11T06:08:56.116Z,3.00
2019-03-11T06:11:23.674Z,2.80
2019-03-11T06:13:51.146Z,2.80
2019-03-11T06:16:18.579Z,2.70
2019-03-11T06:18:50.143Z,2.60
2019-03-11T06:21:40.414Z,2.50
2019-03-11T06:24:07.895Z,2.40
2019-03-11T06:26:35.351Z,2.20
2019-03-11T06:29:02.832Z,2.20
2019-03-11T06:31:30.489Z,2.10
2019-03-11T06:33:58.897Z,2.10
2019-03-11T06:36:26.361Z,2.00
2019-03-11T06:39:05.027Z,2.00
2019-03-11T06:41:23.291Z,2.00
2019-03-11T06:43:50.788Z,2.00
2019-03-11T06:46:18.227Z,2.10
2019-03-11T06:48:45.722Z,2.10
2019-03-11T06:51:13.189Z,2.20
2019-03-11T06:53:41.766Z,2.20
2019-03-11T06:56:09.282Z,2.30
2019-03-11T06:58:36.713Z,2.30
2019-03-11T07:01:04.147Z,2.40
2019-03-11T07:03:31.722Z,2.50
2019-03-11T07:05:59.318Z,2.60
2019-03-11T07:08:26.968Z,2.80
2019-03-11T07:10:54.493Z,3.00
2019-03-11T07:13:21.947Z,3.00
2019-03-11T07:15:49.427Z,3.10
2019-03-11T07:18:17.058Z,3.10
2019-03-11T07:20:44.571Z,3.10
2019-03-11T07:23:13.027Z,3.10
2019-03-11T07:25:40.518Z,3.10
2019-03-11T07:28:07.977Z,3.10
2019-03-11T07:30:35.514Z,3.10
2019-03-11T07:33:03.060Z,3.10
2019-03-11T07:35:30.591Z,3.20
2019-03-11T07:37:58.207Z,3.20
2019-03-11T07:40:30.174Z,3.20
2019-03-11T07:42:55.120Z,3.30
2019-03-11T07:45:22.661Z,3.30
2019-03-11T07:47:50.144Z,3.30
2019-03-11T07:50:17.761Z,3.50
2019-03-11T07:52:46.330Z,3.50
2019-03-11T07:55:13.929Z,3.60
2019-03-11T07:57:42.578Z,3.60
2019-03-11T08:00:10.162Z,3.60
2019-03-11T08:02:37.723Z,3.70
2019-03-11T08:05:06.011Z,3.70
2019-03-11T08:07:33.527Z,3.80
2019-03-11T08:10:01.273Z,3.80
2019-03-11T08:12:28.686Z,3.90
2019-03-11T08:14:56.202Z,3.90
2019-03-11T08:17:23.639Z,3.90
2019-03-11T08:19:53.088Z,3.90
2019-03-11T08:22:20.584Z,3.80
2019-03-11T08:24:48.119Z,3.80
2019-03-11T08:27:15.591Z,3.80
2019-03-11T08:29:43.132Z,3.80
2019-03-11T08:32:10.636Z,3.80
2019-03-11T08:34:38.092Z,3.80
2019-03-11T08:37:05.604Z,3.90
2019-03-11T08:39:33.068Z,4.00
2019-03-11T08:42:00.590Z,4.10
2019-03-11T08:44:28.040Z,4.60
